createdAt,value
2023-11-29T00:02:19.998Z,100065.91
2023-11-29T00:04:46.673Z,100074.41
2023-11-29T00:07:13.300Z,100077.66
2023-11-29T00:09:39.884Z,100063.00
2023-11-29T00:12:06.679Z,100038.97
2023-11-29T00:14:33.780Z,100072.41
2023-11-29T00:17:08.619Z,100071.66
2023-11-29T00:19:38.921Z,100055.25
2023-11-29T00:22:06.207Z,100068.38
2023-11-29T00:24:33.170Z,100069.22
2023-11-29T00:27:00.318Z,100065.75
2023-11-29T00:29:27.317Z,100055.63
2023-11-29T00:31:54.029Z,100059.16
2023-11-29T00:34:20.629Z,100061.53
2023-11-29T00:36:47.931Z,100059.97
2023-11-29T00:39:14.576Z,100054.75
2023-11-29T00:41:41.217Z,100053.06
2023-11-29T00:44:08.008Z,100037.66
2023-11-29T00:46:34.624Z,100047.84
2023-11-29T00:49:01.296Z,100041.06
2023-11-29T00:51:27.884Z,100049.78
2023-11-29T00:53:54.464Z,100041.09
2023-11-29T00:56:21.164Z,100039.59
2023-11-29T00:58:47.793Z,100038.63
2023-11-29T01:01:14.451Z,100039.75
2023-11-29T01:03:41.156Z,100029.63
2023-11-29T01:06:08.010Z,100039.97
2023-11-29T01:08:34.690Z,100034.50
2023-11-29T01:11:01.319Z,100036.31
2023-11-29T01:13:29.438Z,100030.38
2023-11-29T01:15:56.300Z,100032.91
2023-11-29T01:18:23.144Z,100036.31
2023-11-29T01:20:49.895Z,100031.16
2023-11-29T01:23:16.582Z,100039.81
2023-11-29T01:25:43.392Z,100041.75
2023-11-29T01:28:11.776Z,100034.69
2023-11-29T01:30:38.441Z,100043.22
2023-11-29T01:33:05.285Z,100035.47
2023-11-29T01:35:32.014Z,100033.91
2023-11-29T01:37:59.414Z,100016.69
2023-11-29T01:40:26.092Z,100037.19
2023-11-29T01:42:52.711Z,100029.44
2023-11-29T01:45:19.579Z,100036.47
2023-11-29T01:47:46.318Z,100044.06
2023-11-29T01:50:16.044Z,100036.53
2023-11-29T01:52:44.873Z,100039.94
2023-11-29T01:55:13.361Z,100035.81
2023-11-29T01:57:43.002Z,100050.13
2023-11-29T02:00:11.423Z,100030.44
2023-11-29T02:02:38.189Z,100052.75
2023-11-29T02:05:05.371Z,100045.13
2023-11-29T02:07:31.998Z,100043.38
2023-11-29T02:09:58.649Z,100037.34
2023-11-29T02:12:25.746Z,100041.75
2023-11-29T02:14:57.130Z,100045.94
2023-11-29T02:17:23.791Z,100046.13
2023-11-29T02:19:52.360Z,100037.50
2023-11-29T02:22:19.853Z,100035.81
2023-11-29T02:24:49.690Z,100037.44
2023-11-29T02:27:16.296Z,100029.72
2023-11-29T02:29:43.071Z,100042.72
2023-11-29T02:32:09.894Z,100044.34
2023-11-29T02:34:37.155Z,100044.41
2023-11-29T02:37:04.963Z,100029.81
2023-11-29T02:39:31.887Z,100040.13
2023-11-29T02:41:58.537Z,100032.97
2023-11-29T02:44:25.663Z,100023.66
2023-11-29T02:46:52.446Z,100034.53
2023-11-29T02:49:19.465Z,100037.88
2023-11-29T02:51:46.433Z,100009.94
2023-11-29T02:54:13.024Z,100025.94
2023-11-29T02:56:39.699Z,100024.16
2023-11-29T02:59:06.424Z,100015.50
2023-11-29T03:01:33.129Z,100018.84
2023-11-29T03:03:59.888Z,100016.31
2023-11-29T03:06:26.574Z,100005.25
2023-11-29T03:08:53.174Z,100010.09
2023-11-29T03:11:19.916Z,100015.03
2023-11-29T03:13:46.556Z,100009.19
2023-11-29T03:16:13.266Z,100008.31
2023-11-29T03:18:40.512Z,99998.09
2023-11-29T03:21:07.399Z,99993.00
2023-11-29T03:23:34.081Z,99985.28
2023-11-29T03:26:05.448Z,99998.03
2023-11-29T03:28:32.242Z,100001.53
2023-11-29T03:30:58.936Z,99996.34
2023-11-29T03:33:25.674Z,99986.03
2023-11-29T03:35:52.323Z,99991.16
2023-11-29T03:38:19.229Z,99980.38
2023-11-29T03:40:45.934Z,99981.25
2023-11-29T03:43:12.560Z,99981.88
2023-11-29T03:45:39.291Z,99972.47
2023-11-29T03:48:06.145Z,99981.72
2023-11-29T03:50:32.793Z,99984.31
2023-11-29T03:52:59.533Z,99979.22
2023-11-29T03:55:26.258Z,99978.41
2023-11-29T03:57:52.868Z,99975.84
2023-11-29T04:00:19.620Z,99976.75
2023-11-29T04:02:46.324Z,99965.59
2023-11-29T04:05:13.043Z,99962.03
2023-11-29T04:07:39.901Z,99957.00
2023-11-29T04:10:10.001Z,99967.19
2023-11-29T04:12:37.315Z,99957.75
2023-11-29T04:15:04.174Z,99944.94
2023-11-29T04:17:30.881Z,99923.72
2023-11-29T04:19:57.538Z,99953.50
2023-11-29T04:22:24.140Z,99939.88
2023-11-29T04:24:50.743Z,99955.22
2023-11-29T04:27:17.364Z,99946.88
2023-11-29T04:29:44.058Z,99953.63
2023-11-29T04:32:10.691Z,99927.16
2023-11-29T04:34:45.134Z,99942.53
2023-11-29T04:37:14.331Z,99925.44
2023-11-29T04:39:41.203Z,99939.19
2023-11-29T04:42:07.841Z,99933.19
2023-11-29T04:44:36.490Z,99915.13
2023-11-29T04:47:03.590Z,99927.88
2023-11-29T04:49:30.199Z,99921.97
2023-11-29T04:51:56.833Z,99915.88
2023-11-29T04:54:23.413Z,99894.28
2023-11-29T04:56:50.131Z,99912.63
2023-11-29T04:59:16.873Z,99910.00
2023-11-29T05:01:43.624Z,99909.94
2023-11-29T05:04:10.666Z,99909.06
2023-11-29T05:06:37.319Z,99909.88
2023-11-29T05:09:06.913Z,99911.75
2023-11-29T05:11:34.029Z,99898.00
2023-11-29T05:14:00.638Z,99903.13
2023-11-29T05:16:27.267Z,99899.66
2023-11-29T05:18:54.103Z,99901.91
2023-11-29T05:21:20.856Z,99893.44
2023-11-29T05:23:47.520Z,99894.22
2023-11-29T05:26:15.616Z,99875.22
2023-11-29T05:28:42.535Z,99885.47
2023-11-29T05:31:09.243Z,99880.22
2023-11-29T05:33:35.914Z,99893.91
2023-11-29T05:36:02.554Z,99878.34
2023-11-29T05:38:29.244Z,99887.84
2023-11-29T05:40:56.048Z,99869.84
2023-11-29T05:43:23.050Z,99840.75
2023-11-29T05:45:50.179Z,99859.88
2023-11-29T05:48:16.955Z,99878.41
2023-11-29T05:50:43.832Z,99874.16
2023-11-29T05:53:10.570Z,99864.63
2023-11-29T05:55:37.221Z,99856.88
2023-11-29T05:58:07.093Z,99871.97
2023-11-29T06:00:33.896Z,99867.91
2023-11-29T06:03:01.680Z,99857.53
2023-11-29T06:05:29.718Z,99860.84
2023-11-29T06:07:56.514Z,99858.50
2023-11-29T06:10:23.184Z,99861.66
2023-11-29T06:12:49.914Z,99858.50
2023-11-29T06:15:16.922Z,99864.22
2023-11-29T06:17:44.102Z,99820.69
2023-11-29T06:20:13.078Z,99849.53
2023-11-29T06:22:39.973Z,99848.78
2023-11-29T06:25:09.263Z,99837.59
2023-11-29T06:27:39.163Z,99837.03
2023-11-29T06:30:06.452Z,99850.00
2023-11-29T06:32:33.314Z,99845.16
2023-11-29T06:35:00.049Z,99854.91
2023-11-29T06:37:26.747Z,99860.84
2023-11-29T06:39:55.338Z,99842.06
2023-11-29T06:42:22.323Z,99850.38
2023-11-29T06:44:50.083Z,99849.47
2023-11-29T06:47:18.602Z,99846.41
2023-11-29T06:49:46.072Z,99841.94
2023-11-29T06:52:14.140Z,99846.09
2023-11-29T06:54:41.302Z,99834.78
2023-11-29T06:57:08.202Z,99817.56
2023-11-29T06:59:36.102Z,99830.63
2023-11-29T07:02:06.106Z,99813.63
2023-11-29T07:04:33.321Z,99816.81
2023-11-29T07:07:00.979Z,99818.56
2023-11-29T07:09:28.572Z,99818.31
2023-11-29T07:11:55.571Z,99815.78
2023-11-29T07:14:22.323Z,99820.91
2023-11-29T07:16:49.046Z,99815.75
2023-11-29T07:19:15.766Z,99821.88
2023-11-29T07:21:42.684Z,99820.13
2023-11-29T07:24:09.420Z,99805.19
2023-11-29T07:26:36.179Z,99806.59
2023-11-29T07:29:04.710Z,99801.06
2023-11-29T07:31:33.194Z,99806.84
2023-11-29T07:34:00.209Z,99813.50
2023-11-29T07:36:29.028Z,99808.47
2023-11-29T07:38:56.565Z,99801.72
2023-11-29T07:41:23.512Z,99800.44
2023-11-29T07:43:50.351Z,99799.69
2023-11-29T07:46:18.606Z,99786.91
2023-11-29T07:48:45.397Z,99807.31
2023-11-29T07:51:12.069Z,99795.06
2023-11-29T07:53:38.747Z,99782.97
2023-11-29T07:56:05.863Z,99796.69
2023-11-29T07:58:36.607Z,99790.59
2023-11-29T08:01:04.023Z,99777.78
2023-11-29T08:03:30.656Z,99782.84
2023-11-29T08:06:04.681Z,99776.38
2023-11-29T08:08:31.545Z,99776.25
2023-11-29T08:10:58.174Z,99777.91
2023-11-29T08:13:24.975Z,99772.59
2023-11-29T08:15:51.801Z,99786.16
2023-11-29T08:18:18.620Z,99767.16
2023-11-29T08:20:45.465Z,99769.03
2023-11-29T08:23:12.236Z,99768.78
2023-11-29T08:25:38.920Z,99775.13
2023-11-29T08:28:05.584Z,99770.13
2023-11-29T08:30:32.200Z,99766.66
2023-11-29T08:32:58.874Z,99754.25
2023-11-29T08:35:25.625Z,99754.91
2023-11-29T08:37:52.303Z,99764.66
2023-11-29T08:40:19.108Z,99756.53
2023-11-29T08:42:46.083Z,99770.50
2023-11-29T08:45:12.870Z,99771.78
2023-11-29T08:47:39.716Z,99764.53
2023-11-29T08:50:06.816Z,99721.28
2023-11-29T08:52:34.243Z,99753.53
2023-11-29T08:55:00.899Z,99763.97
2023-11-29T08:57:27.782Z,99759.13
2023-11-29T08:59:54.760Z,99770.16
2023-11-29T09:02:24.198Z,99735.09
2023-11-29T09:04:51.793Z,99755.19
2023-11-29T09:07:19.237Z,99769.09
2023-11-29T09:09:46.478Z,99756.19
2023-11-29T09:12:13.634Z,99756.09
2023-11-29T09:14:40.737Z,99743.13
2023-11-29T09:17:07.948Z,99741.31
2023-11-29T09:19:34.722Z,99736.53
2023-11-29T09:22:02.607Z,99744.84
2023-11-29T09:24:31.478Z,99746.63
2023-11-29T09:26:58.704Z,99739.66
2023-11-29T09:29:29.600Z,99759.06
2023-11-29T09:31:56.497Z,99763.75
2023-11-29T09:34:24.133Z,99751.38
2023-11-29T09:36:51.784Z,99760.38
2023-11-29T09:39:19.484Z,99748.53
2023-11-29T09:41:46.928Z,99737.25
2023-11-29T09:44:14.910Z,99743.31
2023-11-29T09:46:42.192Z,99748.56
2023-11-29T09:49:09.401Z,99744.97
2023-11-29T09:51:37.157Z,99732.97
2023-11-29T09:54:05.052Z,99738.63
2023-11-29T09:56:32.105Z,99731.09
2023-11-29T09:58:59.634Z,99731.13
2023-11-29T10:01:27.768Z,99731.09
2023-11-29T10:04:04.863Z,99744.91
2023-11-29T10:06:32.716Z,99746.72
2023-11-29T10:09:02.333Z,99755.19
2023-11-29T10:11:31.155Z,99768.63
2023-11-29T10:13:58.600Z,99776.28
2023-11-29T10:16:28.396Z,99773.50
2023-11-29T10:18:55.173Z,99750.41
2023-11-29T10:21:21.974Z,99763.41
2023-11-29T10:23:50.106Z,99763.84
2023-11-29T10:26:16.917Z,99767.69
2023-11-29T10:28:43.626Z,99771.59
2023-11-29T10:31:10.642Z,99756.00
2023-11-29T10:33:40.928Z,99764.13
2023-11-29T10:36:08.116Z,99761.75
2023-11-29T10:38:42.198Z,99755.34
2023-11-29T10:41:10.352Z,99760.03
2023-11-29T10:43:39.870Z,99761.09
2023-11-29T10:46:30.203Z,99769.75
2023-11-29T10:49:03.215Z,99784.97
2023-11-29T10:51:30.200Z,99786.69
2023-11-29T10:53:59.630Z,99789.72
2023-11-29T10:56:27.652Z,99797.03
2023-11-29T10:59:15.440Z,99788.66
2023-11-29T11:01:44.228Z,99800.53
2023-11-29T11:04:12.117Z,99800.16
2023-11-29T11:06:43.173Z,99788.50
2023-11-29T11:09:34.117Z,99797.53
2023-11-29T11:12:01.653Z,99788.31
2023-11-29T11:14:58.389Z,99808.81
2023-11-29T11:17:25.137Z,99811.13
2023-11-29T11:19:52.189Z,99809.22
2023-11-29T11:22:25.006Z,99802.09
2023-11-29T11:24:54.511Z,99798.66
2023-11-29T11:27:40.372Z,99800.91
2023-11-29T11:30:16.182Z,99803.91
2023-11-29T11:32:43.472Z,99792.84
2023-11-29T11:35:22.881Z,99796.97
2023-11-29T11:37:51.679Z,99792.53
2023-11-29T11:40:19.346Z,99792.69
2023-11-29T11:42:49.258Z,99796.00
2023-11-29T11:45:17.356Z,99793.16
2023-11-29T11:47:44.873Z,99786.94
2023-11-29T11:50:13.747Z,99765.88
2023-11-29T11:52:41.088Z,99799.69
2023-11-29T11:55:09.822Z,99789.47
2023-11-29T11:57:37.689Z,99786.34
2023-11-29T12:00:08.196Z,99788.09
2023-11-29T12:02:39.411Z,99797.06
2023-11-29T12:05:07.514Z,99790.63
2023-11-29T12:07:41.135Z,99782.09
2023-11-29T12:10:14.978Z,99801.13
2023-11-29T12:12:43.596Z,99802.78
2023-11-29T12:15:15.942Z,99798.41
2023-11-29T12:17:43.802Z,99800.63
2023-11-29T12:20:12.622Z,99801.38
2023-11-29T12:22:48.831Z,99821.66
2023-11-29T12:25:17.809Z,99811.91
2023-11-29T12:27:46.326Z,99812.56
2023-11-29T12:30:13.583Z,99803.53
2023-11-29T12:32:41.677Z,99811.06
2023-11-29T12:35:10.113Z,99801.97
2023-11-29T12:37:36.956Z,99807.25
2023-11-29T12:40:05.561Z,99816.84
2023-11-29T12:42:33.538Z,99829.31
2023-11-29T12:45:00.566Z,99818.72
2023-11-29T12:47:31.583Z,99826.59
2023-11-29T12:49:58.914Z,99820.44
2023-11-29T12:52:26.478Z,99823.31
2023-11-29T12:54:53.216Z,99824.50
2023-11-29T12:57:20.033Z,99828.47
2023-11-29T12:59:46.927Z,99825.16
2023-11-29T13:02:13.571Z,99832.00
2023-11-29T13:04:40.273Z,99817.91
2023-11-29T13:07:07.234Z,99827.41
2023-11-29T13:09:33.918Z,99834.88
2023-11-29T13:12:01.199Z,99840.19
2023-11-29T13:14:28.513Z,99844.72
2023-11-29T13:16:55.544Z,99833.66
2023-11-29T13:19:22.878Z,99842.56
2023-11-29T13:21:49.677Z,99830.91
2023-11-29T13:24:16.404Z,99842.31
2023-11-29T13:26:43.270Z,99851.06
2023-11-29T13:29:10.066Z,99843.72
2023-11-29T13:31:36.743Z,99843.03
2023-11-29T13:34:03.382Z,99842.38
2023-11-29T13:36:32.213Z,99843.34
2023-11-29T13:38:59.106Z,99848.66
2023-11-29T13:41:28.778Z,99845.06
2023-11-29T13:43:55.749Z,99835.88
2023-11-29T13:46:22.632Z,99839.78
2023-11-29T13:48:49.531Z,99850.31
2023-11-29T13:51:16.902Z,99824.19
2023-11-29T13:53:43.680Z,99842.19
2023-11-29T13:56:10.792Z,99857.97
2023-11-29T13:58:38.308Z,99850.44
2023-11-29T14:01:06.378Z,99854.91
2023-11-29T14:03:40.502Z,99850.38
2023-11-29T14:06:10.421Z,99855.63
2023-11-29T14:08:37.262Z,99872.34
2023-11-29T14:11:04.045Z,99880.41
2023-11-29T14:13:31.222Z,99875.88
2023-11-29T14:15:57.848Z,99874.09
2023-11-29T14:18:24.545Z,99872.56
2023-11-29T14:20:51.601Z,99872.63
2023-11-29T14:23:19.561Z,99872.34
2023-11-29T14:25:47.888Z,99869.03
2023-11-29T14:28:14.883Z,99862.09
2023-11-29T14:30:42.033Z,99880.66
2023-11-29T14:33:09.075Z,99875.53
2023-11-29T14:35:35.796Z,99886.97
2023-11-29T14:38:02.419Z,99892.13
2023-11-29T14:40:29.091Z,99892.56
2023-11-29T14:42:56.438Z,99897.78
2023-11-29T14:45:23.269Z,99898.56
2023-11-29T14:47:50.278Z,99891.34
2023-11-29T14:50:17.772Z,99905.59
2023-11-29T14:52:44.440Z,99908.69
2023-11-29T14:55:11.046Z,99897.13
2023-11-29T14:57:38.704Z,99911.00
2023-11-29T15:00:06.163Z,99912.63
2023-11-29T15:02:32.790Z,99922.94
2023-11-29T15:04:59.402Z,99916.03
2023-11-29T15:07:25.980Z,99922.63
2023-11-29T15:09:52.946Z,99931.13
2023-11-29T15:12:20.145Z,99925.88
2023-11-29T15:14:46.835Z,99929.47
2023-11-29T15:17:13.540Z,99929.63
2023-11-29T15:19:40.145Z,99922.47
2023-11-29T15:22:07.993Z,99922.25
2023-11-29T15:24:34.575Z,99916.69
2023-11-29T15:27:01.419Z,99935.84
2023-11-29T15:29:31.275Z,99939.94
2023-11-29T15:31:59.164Z,99927.25
2023-11-29T15:34:27.061Z,99940.19
2023-11-29T15:36:53.700Z,99939.94
2023-11-29T15:39:20.410Z,99946.75
2023-11-29T15:41:47.484Z,99945.28
2023-11-29T15:44:14.245Z,99951.53
2023-11-29T15:46:41.022Z,99948.81
2023-11-29T15:49:07.755Z,99951.28
2023-11-29T15:51:34.580Z,99961.97
2023-11-29T15:54:01.400Z,99961.75
2023-11-29T15:56:28.233Z,99945.94
2023-11-29T15:58:54.856Z,99958.59
2023-11-29T16:01:23.677Z,99956.47
2023-11-29T16:03:51.964Z,99967.41
2023-11-29T16:06:18.869Z,99964.28
2023-11-29T16:08:45.651Z,99967.72
2023-11-29T16:11:12.310Z,99977.78
2023-11-29T16:13:38.940Z,99952.28
2023-11-29T16:16:05.988Z,99979.28
2023-11-29T16:18:32.837Z,99971.59
2023-11-29T16:20:59.933Z,99976.31
2023-11-29T16:23:26.625Z,99982.91
2023-11-29T16:25:55.085Z,99986.44
2023-11-29T16:28:21.744Z,100007.34
2023-11-29T16:30:50.167Z,99994.19
2023-11-29T16:33:17.011Z,99998.56
2023-11-29T16:35:43.835Z,99988.09
2023-11-29T16:38:10.534Z,99991.72
2023-11-29T16:40:37.216Z,99989.53
2023-11-29T16:43:04.375Z,99984.56
2023-11-29T16:45:31.022Z,99994.91
2023-11-29T16:47:57.913Z,100005.88
2023-11-29T16:50:24.605Z,100000.94
2023-11-29T16:52:52.431Z,100003.38
2023-11-29T16:55:19.090Z,99996.41
2023-11-29T16:57:45.714Z,100004.44
2023-11-29T17:00:12.800Z,99995.81
2023-11-29T17:02:39.627Z,100000.69
2023-11-29T17:05:06.793Z,99993.66
2023-11-29T17:07:33.423Z,100006.06
2023-11-29T17:10:00.464Z,99985.53
2023-11-29T17:12:27.246Z,100004.94
2023-11-29T17:14:53.844Z,100003.28
2023-11-29T17:17:23.302Z,100012.94
2023-11-29T17:19:51.079Z,100010.94
2023-11-29T17:22:18.840Z,100009.44
2023-11-29T17:24:45.532Z,99988.81
2023-11-29T17:27:12.182Z,100006.59
2023-11-29T17:29:39.303Z,100009.81
2023-11-29T17:32:07.697Z,100008.88
2023-11-29T17:34:34.442Z,100009.69
2023-11-29T17:37:01.134Z,100010.50
2023-11-29T17:39:28.272Z,100014.13
2023-11-29T17:41:55.797Z,100022.66
2023-11-29T17:44:24.062Z,100002.34
2023-11-29T17:46:54.916Z,100023.56
2023-11-29T17:49:21.745Z,100006.56
2023-11-29T17:51:48.341Z,100009.94
2023-11-29T17:54:16.586Z,100022.03
2023-11-29T17:56:44.205Z,100029.88
2023-11-29T17:59:11.756Z,100035.88
2023-11-29T18:01:41.179Z,100033.06
2023-11-29T18:04:08.036Z,100030.72
2023-11-29T18:06:35.179Z,100013.75
2023-11-29T18:09:03.516Z,100018.06
2023-11-29T18:11:30.828Z,100019.13
2023-11-29T18:13:57.995Z,100030.06
2023-11-29T18:16:27.449Z,100040.13
2023-11-29T18:18:54.979Z,100038.03
2023-11-29T18:21:24.569Z,100033.22
2023-11-29T18:23:52.254Z,100026.47
2023-11-29T18:26:19.018Z,100036.50
2023-11-29T18:28:48.524Z,100036.50
2023-11-29T18:31:16.513Z,100044.31
2023-11-29T18:33:43.553Z,100054.75
2023-11-29T18:36:10.592Z,100049.59
2023-11-29T18:38:37.536Z,100053.03
2023-11-29T18:41:05.251Z,100057.50
2023-11-29T18:43:33.837Z,100052.44
2023-11-29T18:46:00.774Z,100047.75
2023-11-29T18:48:28.798Z,100055.09
2023-11-29T18:50:55.859Z,100052.56
2023-11-29T18:53:22.495Z,100065.16
2023-11-29T18:55:49.172Z,100061.97
2023-11-29T18:58:15.796Z,100068.72
2023-11-29T19:00:42.441Z,100055.00
2023-11-29T19:03:09.341Z,100062.88
2023-11-29T19:05:36.080Z,100064.78
2023-11-29T19:08:02.714Z,100067.34
2023-11-29T19:10:29.308Z,100072.31
2023-11-29T19:12:55.953Z,100074.03
2023-11-29T19:15:22.792Z,100072.28
2023-11-29T19:17:49.785Z,100077.16
2023-11-29T19:20:16.525Z,100079.47
2023-11-29T19:22:43.785Z,100079.47
2023-11-29T19:25:10.467Z,100089.09
2023-11-29T19:27:37.636Z,100083.06
2023-11-29T19:30:05.757Z,100080.56
2023-11-29T19:32:32.566Z,100063.50
2023-11-29T19:34:59.284Z,100060.94
2023-11-29T19:37:25.883Z,100065.22
2023-11-29T19:39:53.451Z,100066.72
2023-11-29T19:42:20.198Z,100064.09
2023-11-29T19:44:46.896Z,100066.66
2023-11-29T19:47:16.322Z,100072.81
2023-11-29T19:49:44.009Z,100070.25
2023-11-29T19:52:11.012Z,100064.34
2023-11-29T19:54:38.025Z,100053.19
2023-11-29T19:57:04.879Z,100059.13
2023-11-29T19:59:31.565Z,100060.94
2023-11-29T20:01:58.189Z,100073.59
2023-11-29T20:04:24.876Z,100068.41
2023-11-29T20:06:51.739Z,100063.19
2023-11-29T20:09:21.714Z,100059.06
2023-11-29T20:11:49.109Z,100061.44
2023-11-29T20:14:19.875Z,100077.97
2023-11-29T20:16:52.622Z,100058.09
2023-11-29T20:19:19.411Z,100064.72
2023-11-29T20:21:46.108Z,100068.22
2023-11-29T20:24:12.897Z,100077.94
2023-11-29T20:26:39.614Z,100079.38
2023-11-29T20:29:06.337Z,100070.97
2023-11-29T20:31:33.027Z,100079.75
2023-11-29T20:34:01.528Z,100070.78
2023-11-29T20:36:28.293Z,100059.81
2023-11-29T20:38:55.372Z,100063.03
2023-11-29T20:41:22.535Z,100066.66
2023-11-29T20:43:49.174Z,100083.59
2023-11-29T20:46:15.821Z,100087.41
2023-11-29T20:48:42.483Z,100067.59
2023-11-29T20:51:09.244Z,100071.06
2023-11-29T20:53:35.966Z,100077.00
2023-11-29T20:56:02.728Z,100067.56
2023-11-29T20:58:33.219Z,100075.47
2023-11-29T21:00:59.908Z,100081.22
2023-11-29T21:03:26.754Z,100069.03
2023-11-29T21:05:53.580Z,100059.84
2023-11-29T21:08:20.267Z,100084.03
2023-11-29T21:10:48.248Z,100077.97
2023-11-29T21:13:17.919Z,100079.63
2023-11-29T21:15:44.648Z,100088.84
2023-11-29T21:18:11.588Z,100090.31
2023-11-29T21:20:40.268Z,100093.06
2023-11-29T21:23:07.806Z,100090.56
2023-11-29T21:25:35.224Z,100096.47
2023-11-29T21:28:02.058Z,100099.88
2023-11-29T21:30:28.929Z,100102.84
2023-11-29T21:32:55.596Z,100095.91
2023-11-29T21:35:22.200Z,100066.47
2023-11-29T21:37:50.056Z,100088.56
2023-11-29T21:40:16.915Z,100074.91
2023-11-29T21:42:43.634Z,100079.38
2023-11-29T21:45:10.847Z,100079.31
2023-11-29T21:47:38.129Z,100096.16
2023-11-29T21:50:05.374Z,100084.25
2023-11-29T21:52:32.007Z,100086.63
2023-11-29T21:54:58.658Z,100095.28
2023-11-29T21:57:25.261Z,100089.56
2023-11-29T21:59:51.916Z,100078.19
2023-11-29T22:02:18.724Z,100083.00
2023-11-29T22:04:45.357Z,100082.69
2023-11-29T22:07:12.024Z,100071.44
2023-11-29T22:09:40.221Z,100078.25
2023-11-29T22:12:07.016Z,100102.16
2023-11-29T22:14:33.729Z,100101.47
2023-11-29T22:17:00.675Z,100103.88
2023-11-29T22:19:30.276Z,100086.06
2023-11-29T22:21:59.241Z,100093.78
2023-11-29T22:24:25.996Z,100102.41
2023-11-29T22:26:57.409Z,100090.50
2023-11-29T22:29:26.635Z,100098.91
2023-11-29T22:31:54.400Z,100107.75
2023-11-29T22:34:22.110Z,100101.63
2023-11-29T22:36:51.587Z,100089.66
2023-11-29T22:39:18.655Z,100096.47
2023-11-29T22:41:45.341Z,100105.00
2023-11-29T22:44:12.578Z,100113.50
2023-11-29T22:46:40.844Z,100112.84
2023-11-29T22:49:08.443Z,100123.03
2023-11-29T22:51:35.474Z,100130.66
2023-11-29T22:54:05.685Z,100131.75
2023-11-29T22:56:39.792Z,100132.00
2023-11-29T22:59:06.681Z,100129.47
2023-11-29T23:01:34.091Z,100104.81
2023-11-29T23:04:03.106Z,100120.47
2023-11-29T23:06:30.374Z,100106.63
2023-11-29T23:08:57.326Z,100105.38
2023-11-29T23:11:24.147Z,100106.09
2023-11-29T23:13:52.476Z,100113.03
2023-11-29T23:16:19.765Z,100107.66
2023-11-29T23:18:46.606Z,100096.56
2023-11-29T23:21:13.346Z,100108.78
2023-11-29T23:23:40.468Z,100105.25
2023-11-29T23:26:07.422Z,100091.63
2023-11-29T23:28:34.209Z,100088.25
2023-11-29T23:31:01.052Z,100076.94
2023-11-29T23:33:27.946Z,100090.81
2023-11-29T23:35:54.778Z,100085.53
2023-11-29T23:38:21.447Z,100071.31
2023-11-29T23:40:48.069Z,100089.34
2023-11-29T23:43:14.752Z,100082.38
2023-11-29T23:45:41.369Z,100087.19
2023-11-29T23:48:08.267Z,100082.16
2023-11-29T23:50:35.009Z,100082.84
2023-11-29T23:53:01.890Z,100071.22
2023-11-29T23:55:28.513Z,100084.09
2023-11-29T23:57:55.130Z,100087.41
